Time;durP1;ratioP1;P1;durP2;ratioP2;P2;SDS_P1;SDS_P2;PMS_P1;PMS_P2;Temp;Humidity;BMP_temperature;BMP_pressure;BME280_temperature;BME280_humidity;BME280_pressure;Samples;Min_cycle;Max_cycle;Signal;HPM_P1;HPM_P2
2022/11/28 00:00:41;;;;;;;24.00;16.17;;;22.50;51.50;;;;;;7708267;22;83181;-65
2022/11/28 00:03:41;;;;;;;21.38;13.85;;;22.50;51.20;;;;;;7710971;22;83425;-68
2022/11/28 00:06:44;;;;;;;23.92;14.85;;;22.50;51.50;;;;;;7711949;22;84457;-68
2022/11/28 00:09:44;;;;;;;23.27;14.70;;;22.50;51.30;;;;;;7712611;22;83112;-68
2022/11/28 00:12:45;;;;;;;19.95;14.10;;;22.50;51.20;;;;;;7710342;22;83373;-68
2022/11/28 00:15:45;;;;;;;22.27;15.48;;;22.50;51.30;;;;;;7710575;22;83111;-68
2022/11/28 00:18:46;;;;;;;22.50;14.77;;;22.50;51.00;;;;;;7712217;22;83546;-69
2022/11/28 00:21:46;;;;;;;21.33;14.65;;;22.50;50.70;;;;;;7710166;22;82617;-69
2022/11/28 00:24:47;;;;;;;23.95;15.43;;;22.50;50.90;;;;;;7682925;22;84046;-69
2022/11/28 00:27:47;;;;;;;24.65;15.07;;;22.50;50.90;;;;;;7707717;22;82687;-63
2022/11/28 00:30:48;;;;;;;23.10;14.57;;;22.50;50.90;;;;;;7680703;22;86090;-63
2022/11/28 00:33:48;;;;;;;23.25;15.77;;;22.50;51.00;;;;;;7708721;22;83679;-64
2022/11/28 00:36:49;;;;;;;22.08;15.15;;;22.50;50.90;;;;;;7708669;22;84148;-63
2022/11/28 00:39:49;;;;;;;21.95;14.90;;;22.50;50.60;;;;;;7705496;22;83426;-64
2022/11/28 00:42:50;;;;;;;20.38;14.77;;;22.50;50.80;;;;;;7709853;22;83871;-64
2022/11/28 00:45:50;;;;;;;19.85;14.35;;;22.50;50.60;;;;;;7713274;22;83325;-64
2022/11/28 00:48:51;;;;;;;21.25;14.25;;;22.50;50.60;;;;;;7711308;22;82960;-62
2022/11/28 00:51:51;;;;;;;22.30;15.02;;;22.50;50.40;;;;;;7711691;22;82968;-63
2022/11/28 00:54:52;;;;;;;21.27;14.55;;;22.50;50.40;;;;;;7712185;22;90557;-63
2022/11/28 00:57:54;;;;;;;19.98;14.25;;;22.50;50.50;;;;;;7712106;22;83429;-63
2022/11/28 01:00:54;;;;;;;22.35;14.77;;;22.50;50.20;;;;;;7711786;22;83026;-63
2022/11/28 01:03:55;;;;;;;23.60;15.05;;;22.50;50.30;;;;;;7710126;22;83012;-63
2022/11/28 01:06:56;;;;;;;22.95;15.18;;;22.50;49.80;;;;;;7711849;22;83565;-61
2022/11/28 01:09:56;;;;;;;24.25;15.20;;;22.50;49.90;;;;;;7710002;22;83285;-62
2022/11/28 01:12:57;;;;;;;19.08;14.20;;;22.50;49.80;;;;;;7711123;22;87170;-62
2022/11/28 01:15:57;;;;;;;23.75;15.48;;;22.50;49.80;;;;;;7706503;22;83891;-61
2022/11/28 01:18:58;;;;;;;23.85;14.43;;;22.50;49.50;;;;;;7707054;22;84086;-61
2022/11/28 01:21:58;;;;;;;22.42;15.00;;;22.50;49.50;;;;;;7712481;22;83869;-62
2022/11/28 01:24:59;;;;;;;22.95;15.07;;;22.50;49.50;;;;;;7709019;22;83479;-62
2022/11/28 01:27:59;;;;;;;23.08;14.43;;;22.50;49.20;;;;;;7706843;22;84848;-63
2022/11/28 01:31:00;;;;;;;21.60;14.02;;;22.50;49.60;;;;;;7683853;22;84048;-62
2022/11/28 01:34:00;;;;;;;21.52;14.98;;;22.50;49.30;;;;;;7713558;22;82592;-61
2022/11/28 01:37:01;;;;;;;20.92;14.25;;;22.50;49.40;;;;;;7709261;22;83160;-61
2022/11/28 01:40:01;;;;;;;22.05;14.95;;;22.50;49.10;;;;;;7711882;22;83911;-60
2022/11/28 01:43:02;;;;;;;21.83;15.13;;;22.50;48.90;;;;;;7679622;22;86360;-62
2022/11/28 01:46:02;;;;;;;21.92;15.23;;;22.50;48.70;;;;;;7710122;22;82860;-64
2022/11/28 01:49:03;;;;;;;20.85;14.75;;;22.50;48.60;;;;;;7712536;22;83385;-63
2022/11/28 01:52:03;;;;;;;23.20;14.77;;;22.50;48.60;;;;;;7713163;22;83345;-63
2022/11/28 01:55:04;;;;;;;22.40;15.25;;;22.40;48.20;;;;;;7709299;22;83957;-62
2022/11/28 01:58:04;;;;;;;20.48;15.00;;;22.50;48.20;;;;;;7688145;22;85770;-64
2022/11/28 02:01:04;;;;;;;22.63;14.90;;;22.40;48.10;;;;;;7709647;22;83493;-64
2022/11/28 02:04:05;;;;;;;22.25;15.15;;;22.50;48.10;;;;;;7711107;22;83302;-64
2022/11/28 02:07:05;;;;;;;21.55;15.30;;;22.40;48.10;;;;;;7712072;22;83274;-64
2022/11/28 02:10:06;;;;;;;20.67;14.40;;;22.40;48.10;;;;;;7714036;22;82958;-64
2022/11/28 02:13:06;;;;;;;20.38;14.65;;;22.40;47.70;;;;;;7709266;22;84823;-64
2022/11/28 02:16:07;;;;;;;21.38;14.85;;;22.40;47.70;;;;;;7712040;22;83114;-64
2022/11/28 02:19:07;;;;;;;23.08;15.00;;;22.40;47.40;;;;;;7712167;22;82878;-64
2022/11/28 02:22:08;;;;;;;21.10;14.45;;;22.40;47.40;;;;;;7711689;22;83007;-62
2022/11/28 02:25:08;;;;;;;19.50;13.90;;;22.40;47.40;;;;;;7713217;22;82978;-64
2022/11/28 02:28:09;;;;;;;21.80;14.90;;;22.40;47.40;;;;;;7709977;22;84022;-64
2022/11/28 02:31:09;;;;;;;20.02;14.07;;;22.40;47.10;;;;;;7708419;22;82967;-62
2022/11/28 02:34:10;;;;;;;20.13;13.73;;;22.40;47.20;;;;;;7707054;22;85063;-63
2022/11/28 02:37:10;;;;;;;19.75;14.43;;;22.40;47.10;;;;;;7712804;22;83526;-65
2022/11/28 02:40:11;;;;;;;21.95;14.07;;;22.40;46.90;;;;;;7707129;22;83398;-68
2022/11/28 02:43:11;;;;;;;20.95;13.82;;;22.40;46.90;;;;;;7710165;22;82896;-66
2022/11/28 02:46:12;;;;;;;22.23;15.00;;;22.40;46.90;;;;;;7713081;22;83323;-66
2022/11/28 02:49:12;;;;;;;17.95;13.13;;;22.40;46.80;;;;;;7713406;22;82888;-67
2022/11/28 02:52:13;;;;;;;19.52;13.65;;;22.40;46.70;;;;;;7710904;22;83317;-66
2022/11/28 02:55:13;;;;;;;21.85;13.95;;;22.40;46.50;;;;;;7713947;22;83463;-63
2022/11/28 02:58:14;;;;;;;22.08;13.88;;;22.40;46.70;;;;;;7715186;22;83013;-63
2022/11/28 03:01:14;;;;;;;21.23;14.23;;;22.40;46.50;;;;;;7710311;22;84674;-63
2022/11/28 03:04:15;;;;;;;22.10;14.25;;;22.40;46.40;;;;;;7711946;22;83104;-63
2022/11/28 03:07:15;;;;;;;21.27;14.15;;;22.40;46.50;;;;;;7711888;22;83990;-63
2022/11/28 03:10:16;;;;;;;21.35;14.35;;;22.40;46.30;;;;;;7713060;22;83140;-63
2022/11/28 03:13:16;;;;;;;21.40;14.02;;;22.40;46.20;;;;;;7711621;22;82757;-63
2022/11/28 03:16:17;;;;;;;19.17;13.23;;;22.40;46.10;;;;;;7713234;22;83269;-62
2022/11/28 03:19:17;;;;;;;23.08;14.63;;;22.40;46.10;;;;;;7711440;22;83401;-63
2022/11/28 03:22:18;;;;;;;19.63;14.13;;;22.40;45.90;;;;;;7713708;22;83453;-62
2022/11/28 03:25:18;;;;;;;21.20;14.13;;;22.40;46.00;;;;;;7709509;22;82871;-63
2022/11/28 03:28:19;;;;;;;20.15;14.50;;;22.40;45.80;;;;;;7712280;22;84703;-63
2022/11/28 03:31:19;;;;;;;19.83;13.50;;;22.40;45.80;;;;;;7712411;22;83658;-62
2022/11/28 03:34:20;;;;;;;20.63;13.77;;;22.40;45.70;;;;;;7711885;22;83725;-62
2022/11/28 03:37:20;;;;;;;23.92;14.23;;;22.40;45.80;;;;;;7712779;22;83295;-62
2022/11/28 03:40:21;;;;;;;22.15;14.80;;;22.40;45.80;;;;;;7711571;22;82948;-62
2022/11/28 03:43:21;;;;;;;19.95;13.60;;;22.40;45.50;;;;;;7711148;22;83090;-62
2022/11/28 03:46:22;;;;;;;23.15;14.50;;;22.40;45.70;;;;;;7711727;22;83555;-60
2022/11/28 03:49:22;;;;;;;20.23;14.23;;;22.40;45.60;;;;;;7712270;22;83510;-62
2022/11/28 03:52:23;;;;;;;20.65;14.65;;;22.40;45.60;;;;;;7712506;22;83378;-62
2022/11/28 03:55:23;;;;;;;18.48;12.70;;;22.40;45.30;;;;;;7711470;22;83476;-61
2022/11/28 03:58:24;;;;;;;21.63;13.85;;;22.40;45.40;;;;;;7711716;22;83048;-64
2022/11/28 04:01:24;;;;;;;21.17;13.90;;;22.40;45.30;;;;;;7706959;22;83232;-62
2022/11/28 04:04:25;;;;;;;19.85;13.05;;;22.40;45.30;;;;;;7712457;22;84604;-61
2022/11/28 04:07:25;;;;;;;19.45;12.98;;;22.40;45.30;;;;;;7713365;22;83304;-62
2022/11/28 04:10:26;;;;;;;21.65;13.73;;;22.40;45.20;;;;;;7710899;22;83078;-63
2022/11/28 04:13:26;;;;;;;18.20;12.85;;;22.40;45.20;;;;;;7711494;22;83627;-62
2022/11/28 04:16:27;;;;;;;19.77;13.45;;;22.40;45.20;;;;;;7709815;22;82947;-61
2022/11/28 04:19:28;;;;;;;23.48;13.43;;;22.40;44.70;;;;;;7710439;22;83217;-60
2022/11/28 04:22:28;;;;;;;22.25;14.27;;;22.50;44.50;;;;;;7713443;22;83524;-60
2022/11/28 04:25:29;;;;;;;19.80;13.82;;;22.50;44.30;;;;;;7709562;22;83871;-60
2022/11/28 04:28:29;;;;;;;17.73;12.40;;;22.60;44.10;;;;;;7711438;22;84156;-63
2022/11/28 04:31:29;;;;;;;22.35;13.88;;;22.60;44.10;;;;;;7710022;22;83301;-63
2022/11/28 04:34:30;;;;;;;20.00;12.80;;;22.70;44.00;;;;;;7713373;22;83919;-64
2022/11/28 04:37:30;;;;;;;20.20;13.80;;;22.70;44.00;;;;;;7712636;22;83673;-65
2022/11/28 04:40:31;;;;;;;19.65;12.55;;;22.80;44.00;;;;;;7710142;22;83287;-64
2022/11/28 04:43:31;;;;;;;18.65;12.35;;;22.80;44.00;;;;;;7709861;22;83416;-64
2022/11/28 04:46:32;;;;;;;17.70;12.27;;;22.80;43.80;;;;;;7711506;22;84081;-65
2022/11/28 04:49:32;;;;;;;18.13;12.27;;;22.90;43.70;;;;;;7711999;22;82962;-65
2022/11/28 04:52:36;;;;;;;20.00;13.15;;;22.90;43.50;;;;;;7712749;22;84025;-64
2022/11/28 04:55:36;;;;;;;18.55;12.85;;;22.90;43.60;;;;;;7710102;22;82831;-65
2022/11/28 04:58:37;;;;;;;17.98;12.38;;;22.90;43.50;;;;;;7711031;22;83843;-64
2022/11/28 05:01:38;;;;;;;19.80;12.65;;;23.00;43.40;;;;;;7712042;22;82950;-62
2022/11/28 05:04:39;;;;;;;19.38;13.90;;;23.00;43.50;;;;;;7710081;22;82953;-59
2022/11/28 05:07:39;;;;;;;18.00;12.85;;;23.00;43.30;;;;;;7709567;22;83424;-60
2022/11/28 05:10:40;;;;;;;18.45;12.35;;;23.00;43.20;;;;;;7709294;22;84250;-61
2022/11/28 05:13:40;;;;;;;18.55;12.85;;;23.00;43.30;;;;;;7700367;22;83624;-63
2022/11/28 05:16:41;;;;;;;18.05;12.40;;;23.10;43.40;;;;;;7710893;22;83396;-62
2022/11/28 05:19:41;;;;;;;18.48;12.57;;;23.10;44.60;;;;;;7707336;22;83038;-62
2022/11/28 05:22:42;;;;;;;19.70;11.65;;;23.10;43.80;;;;;;7706805;22;83361;-60
2022/11/28 05:25:42;;;;;;;17.67;10.95;;;23.20;43.80;;;;;;7710187;22;84888;-60
2022/11/28 05:28:43;;;;;;;19.83;11.60;;;23.20;44.70;;;;;;7712826;22;82941;-59
2022/11/28 05:31:43;;;;;;;15.57;10.80;;;23.20;44.70;;;;;;7711549;22;83536;-60
2022/11/28 05:34:44;;;;;;;14.45;10.77;;;23.20;45.20;;;;;;7714416;22;83535;-59
2022/11/28 05:37:44;;;;;;;18.50;11.30;;;23.30;44.80;;;;;;7704839;22;83225;-57
2022/11/28 05:40:45;;;;;;;15.40;11.23;;;23.20;44.90;;;;;;7709187;22;83199;-67
2022/11/28 05:43:45;;;;;;;15.63;11.13;;;23.30;45.00;;;;;;7677594;22;85084;-62
2022/11/28 05:46:46;;;;;;;15.20;10.77;;;23.30;45.20;;;;;;7685143;22;84283;-63
2022/11/28 05:49:46;;;;;;;19.92;12.05;;;23.30;44.70;;;;;;7705653;22;83195;-66
2022/11/28 05:52:47;;;;;;;23.17;12.18;;;23.30;44.50;;;;;;7705968;22;83512;-60
2022/11/28 05:55:47;;;;;;;19.90;12.90;;;23.30;45.30;;;;;;7686747;22;83983;-60
2022/11/28 05:58:48;;;;;;;21.35;12.18;;;23.30;45.30;;;;;;7702889;22;83528;-63
2022/11/28 06:01:48;;;;;;;18.58;12.23;;;23.30;44.90;;;;;;7709868;22;83758;-62
2022/11/28 06:04:49;;;;;;;17.23;12.60;;;23.30;44.50;;;;;;7704265;22;84293;-61
2022/11/28 06:07:49;;;;;;;18.35;12.02;;;23.30;44.30;;;;;;7705550;22;83275;-61
2022/11/28 06:10:50;;;;;;;19.30;12.73;;;23.20;43.90;;;;;;7707432;22;82886;-61
2022/11/28 06:13:50;;;;;;;18.55;12.57;;;23.20;43.70;;;;;;7705637;22;83093;-60
2022/11/28 06:16:51;;;;;;;22.85;12.10;;;23.20;43.50;;;;;;7679174;22;83240;-62
2022/11/28 06:19:51;;;;;;;19.45;12.55;;;23.20;43.80;;;;;;7561570;22;84915;-62
2022/11/28 06:22:52;;;;;;;20.17;12.48;;;23.10;43.00;;;;;;7646122;22;85566;-61
2022/11/28 06:25:52;;;;;;;20.38;13.13;;;23.10;42.90;;;;;;7707745;22;83769;-60
2022/11/28 06:28:54;;;;;;;20.63;13.43;;;23.10;43.00;;;;;;7706237;22;84076;-61
2022/11/28 06:31:55;;;;;;;19.15;12.43;;;23.10;42.90;;;;;;7708026;22;83785;-62
2022/11/28 06:34:55;;;;;;;18.25;12.27;;;23.00;42.80;;;;;;7710756;22;83227;-61
2022/11/28 06:37:56;;;;;;;17.88;12.10;;;23.00;43.00;;;;;;7711182;22;83424;-68
2022/11/28 06:40:56;;;;;;;17.90;12.20;;;23.00;43.00;;;;;;7698826;22;83168;-68
2022/11/28 06:43:57;;;;;;;18.27;12.20;;;23.00;42.90;;;;;;7709105;22;83041;-67
2022/11/28 06:46:57;;;;;;;17.42;12.07;;;23.00;42.90;;;;;;7707556;22;82978;-67
2022/11/28 06:49:58;;;;;;;18.48;11.57;;;22.90;42.80;;;;;;7710494;22;83401;-69
2022/11/28 06:52:58;;;;;;;19.88;12.80;;;23.00;43.00;;;;;;7710622;22;83754;-67
2022/11/28 06:55:59;;;;;;;19.65;12.57;;;22.90;43.20;;;;;;7701723;22;82921;-68
2022/11/28 06:58:59;;;;;;;19.55;11.68;;;22.90;43.20;;;;;;7706770;22;82608;-67
2022/11/28 07:02:02;;;;;;;16.67;11.48;;;22.90;43.30;;;;;;7707693;22;84584;-65
2022/11/28 07:05:02;;;;;;;18.15;12.68;;;22.80;42.90;;;;;;7709216;22;83182;-66
2022/11/28 07:08:03;;;;;;;17.00;11.88;;;22.80;43.00;;;;;;7710491;22;83217;-67
2022/11/28 07:11:03;;;;;;;16.65;11.68;;;22.80;43.20;;;;;;7681494;22;84859;-68
2022/11/28 07:14:04;;;;;;;19.30;11.30;;;22.80;43.30;;;;;;7710497;22;83371;-67
2022/11/28 07:17:05;;;;;;;16.17;11.95;;;22.80;43.40;;;;;;7705484;22;83302;-65
2022/11/28 07:20:05;;;;;;;17.15;11.02;;;22.80;43.30;;;;;;7702784;22;83731;-67
2022/11/28 07:23:06;;;;;;;16.45;10.82;;;22.80;43.60;;;;;;7706945;22;84289;-66
2022/11/28 07:26:06;;;;;;;14.90;10.45;;;22.70;43.60;;;;;;7688218;22;83747;-66
2022/11/28 07:29:08;;;;;;;15.40;10.65;;;22.70;43.50;;;;;;7700179;22;84114;-68
2022/11/28 07:32:09;;;;;;;14.38;10.00;;;22.70;43.10;;;;;;7698178;22;84256;-67
2022/11/28 07:35:11;;;;;;;14.93;10.50;;;22.70;43.40;;;;;;7710181;22;83442;-67
2022/11/28 07:38:11;;;;;;;14.38;10.38;;;22.70;43.40;;;;;;7691876;22;83947;-67
2022/11/28 07:41:11;;;;;;;14.73;10.48;;;22.70;43.30;;;;;;7661181;22;84034;-67
2022/11/28 07:44:16;;;;;;;15.10;10.13;;;22.70;43.10;;;;;;7649148;22;84792;-66
2022/11/28 07:47:16;;;;;;;14.10;10.07;;;22.70;43.20;;;;;;7706493;22;84099;-69
2022/11/28 07:50:17;;;;;;;13.55;10.23;;;22.60;43.10;;;;;;7711011;22;88399;-70
2022/11/28 07:53:17;;;;;;;14.52;10.10;;;22.70;43.40;;;;;;7700586;22;83936;-66
2022/11/28 07:56:18;;;;;;;13.88;9.40;;;22.60;43.40;;;;;;7702636;22;83178;-66
2022/11/28 07:59:18;;;;;;;17.80;10.68;;;22.60;43.40;;;;;;7707277;22;83737;-65
2022/11/28 08:02:19;;;;;;;14.65;9.80;;;22.60;43.40;;;;;;7705163;22;83010;-65
2022/11/28 08:05:19;;;;;;;15.68;11.05;;;22.60;43.40;;;;;;7707824;22;82136;-66
2022/11/28 08:08:20;;;;;;;15.82;10.77;;;22.60;43.40;;;;;;7705423;22;83205;-60
2022/11/28 08:11:20;;;;;;;14.23;10.05;;;22.60;43.50;;;;;;7701770;22;83810;-62
2022/11/28 08:14:21;;;;;;;13.60;9.65;;;22.50;43.40;;;;;;7699995;22;83605;-61
2022/11/28 08:17:21;;;;;;;12.73;9.63;;;22.50;43.70;;;;;;7702558;22;83184;-61
2022/11/28 08:20:22;;;;;;;13.30;9.02;;;22.50;44.20;;;;;;7704920;22;80930;-61
2022/11/28 08:23:22;;;;;;;14.55;9.45;;;22.50;44.20;;;;;;7703369;22;80426;-62
2022/11/28 08:26:23;;;;;;;14.40;9.60;;;22.60;44.30;;;;;;7704502;22;80756;-62
2022/11/28 08:29:23;;;;;;;13.43;9.07;;;22.60;44.40;;;;;;7702829;22;81942;-62
2022/11/28 08:32:24;;;;;;;12.65;9.05;;;22.60;45.30;;;;;;7697002;22;81750;-61
2022/11/28 08:35:25;;;;;;;13.52;9.82;;;22.60;44.20;;;;;;7710464;22;80373;-65
2022/11/28 08:38:25;;;;;;;14.18;9.55;;;22.60;44.00;;;;;;7713341;22;80611;-58
2022/11/28 08:41:25;;;;;;;14.73;9.73;;;22.60;43.40;;;;;;7686465;22;82274;-60
2022/11/28 08:44:26;;;;;;;19.38;10.30;;;22.70;43.20;;;;;;7695081;22;80551;-62
2022/11/28 08:47:27;;;;;;;14.43;9.55;;;22.70;43.00;;;;;;7669929;22;84121;-57
2022/11/28 08:50:27;;;;;;;14.30;9.48;;;22.80;42.90;;;;;;7713477;22;83151;-64
2022/11/28 08:53:28;;;;;;;13.02;9.27;;;22.80;42.70;;;;;;7703810;22;81153;-61
2022/11/28 08:56:28;;;;;;;18.33;10.57;;;22.90;42.90;;;;;;7704589;22;80645;-63
2022/11/28 08:59:29;;;;;;;15.70;10.55;;;22.90;43.10;;;;;;7675005;22;83103;-65
2022/11/28 09:02:29;;;;;;;14.45;9.70;;;22.90;42.90;;;;;;7701092;22;83486;-64
2022/11/28 09:05:30;;;;;;;15.18;9.60;;;23.00;42.50;;;;;;7714757;22;82830;-60
2022/11/28 09:08:30;;;;;;;14.05;9.80;;;23.00;42.00;;;;;;7715463;22;79846;-60
2022/11/28 09:11:31;;;;;;;11.82;8.98;;;23.00;41.50;;;;;;7686100;22;81102;-63
2022/11/28 09:14:31;;;;;;;12.45;9.00;;;23.10;41.00;;;;;;7717953;22;81432;-58
2022/11/28 09:17:32;;;;;;;13.68;8.98;;;23.20;41.50;;;;;;7711707;22;82177;-56
2022/11/28 09:20:32;;;;;;;12.32;9.15;;;23.20;40.60;;;;;;7711957;22;80431;-62
2022/11/28 09:23:33;;;;;;;12.75;8.98;;;23.20;40.60;;;;;;7710678;22;81051;-62
2022/11/28 09:26:33;;;;;;;13.52;9.57;;;23.20;40.30;;;;;;7715555;22;80298;-62
2022/11/28 09:29:34;;;;;;;11.88;8.57;;;23.30;40.10;;;;;;7716275;22;81333;-64
2022/11/28 09:32:34;;;;;;;16.02;9.75;;;23.30;40.00;;;;;;7715396;22;80049;-69
2022/11/28 09:35:35;;;;;;;22.45;11.90;;;23.20;39.60;;;;;;7713056;22;80939;-61
2022/11/28 09:38:35;;;;;;;16.52;11.88;;;23.00;38.80;;;;;;7709385;22;82720;-74
2022/11/28 09:41:36;;;;;;;20.30;12.68;;;22.80;38.70;;;;;;7706171;22;83474;-64
2022/11/28 09:44:36;;;;;;;17.38;12.07;;;22.60;38.30;;;;;;7702568;22;83809;-64
2022/11/28 09:47:37;;;;;;;20.83;12.20;;;22.50;38.40;;;;;;7700938;22;84123;-72
2022/11/28 09:50:37;;;;;;;18.90;12.52;;;22.50;39.60;;;;;;7704282;22;83164;-70
2022/11/28 09:53:38;;;;;;;38.40;12.10;;;22.40;39.60;;;;;;7707194;22;83241;-73
2022/11/28 09:56:39;;;;;;;22.55;11.45;;;22.40;39.20;;;;;;7711059;22;83093;-66
2022/11/28 09:59:40;;;;;;;26.10;11.85;;;22.30;38.30;;;;;;7706674;22;83728;-68
2022/11/28 10:02:40;;;;;;;20.40;11.90;;;22.20;38.50;;;;;;7701105;22;84650;-64
2022/11/28 10:05:41;;;;;;;17.48;10.50;;;22.20;38.80;;;;;;7707641;22;82787;-66
2022/11/28 10:08:41;;;;;;;19.95;9.82;;;22.20;39.00;;;;;;7707491;22;83932;-67
2022/11/28 10:11:42;;;;;;;13.57;9.90;;;22.20;38.90;;;;;;7709099;22;83440;-67
2022/11/28 10:14:42;;;;;;;15.80;10.57;;;22.20;39.10;;;;;;7714375;22;80126;-65
2022/11/28 10:17:43;;;;;;;18.58;10.20;;;22.20;38.90;;;;;;7695101;22;82950;-60
2022/11/28 10:20:43;;;;;;;16.38;10.27;;;22.20;38.80;;;;;;7704172;22;82829;-60
2022/11/28 10:23:44;;;;;;;16.00;10.30;;;22.20;38.80;;;;;;7706296;22;83735;-61
2022/11/28 10:26:44;;;;;;;14.50;9.75;;;22.20;38.80;;;;;;7698463;22;83492;-59
2022/11/28 10:29:45;;;;;;;14.15;9.88;;;22.20;38.80;;;;;;7693065;22;83044;-59
2022/11/28 10:32:46;;;;;;;15.82;9.77;;;22.20;39.00;;;;;;7692511;22;80609;-59
2022/11/28 10:35:46;;;;;;;13.07;9.60;;;22.10;38.90;;;;;;7702177;22;80689;-59
2022/11/28 10:38:47;;;;;;;16.42;9.68;;;22.20;38.90;;;;;;7702077;22;87114;-60
2022/11/28 10:42:10;;;;;;;14.63;10.43;;;22.20;38.90;;;;;;7702690;22;80371;-60
2022/11/28 10:45:08;;;;;;;17.15;10.00;;;22.20;38.80;;;;;;7707745;22;83370;-59
2022/11/28 10:48:08;;;;;;;13.65;9.23;;;22.20;38.60;;;;;;7707915;22;83661;-69
2022/11/28 10:51:09;;;;;;;15.05;10.35;;;22.40;38.40;;;;;;7715191;22;82678;-61
2022/11/28 10:54:09;;;;;;;17.33;10.75;;;22.60;38.40;;;;;;7713567;22;83294;-60
2022/11/28 10:57:10;;;;;;;16.15;10.75;;;22.80;38.30;;;;;;7711132;22;83873;-59
2022/11/28 11:00:13;;;;;;;15.95;10.80;;;23.00;37.80;;;;;;7705078;22;83679;-62
2022/11/28 11:03:14;;;;;;;15.18;10.50;;;23.10;37.40;;;;;;7708470;22;83069;-59
2022/11/28 11:06:14;;;;;;;14.63;10.20;;;23.20;37.40;;;;;;7710116;22;84174;-60
2022/11/28 11:09:15;;;;;;;16.95;11.02;;;23.20;37.50;;;;;;7712995;22;83238;-59
2022/11/28 11:12:15;;;;;;;14.88;9.88;;;23.10;37.50;;;;;;7699260;22;84674;-59
2022/11/28 11:15:16;;;;;;;20.38;10.65;;;23.10;37.70;;;;;;7702066;22;82182;-60
2022/11/28 11:18:16;;;;;;;15.90;9.90;;;23.10;37.80;;;;;;7700709;22;83262;-60
2022/11/28 11:21:17;;;;;;;16.58;9.50;;;23.20;38.00;;;;;;7673968;22;81717;-59
2022/11/28 11:24:17;;;;;;;16.25;10.13;;;23.10;37.80;;;;;;7705560;22;80854;-60
2022/11/28 11:27:18;;;;;;;17.83;10.52;;;23.20;37.60;;;;;;7700963;22;82552;-60
2022/11/28 11:30:18;;;;;;;16.30;10.30;;;23.20;37.40;;;;;;7704095;22;83390;-67
2022/11/28 11:33:19;;;;;;;13.95;9.10;;;23.20;37.20;;;;;;7708430;22;83537;-67
2022/11/28 11:36:20;;;;;;;16.98;8.55;;;23.30;37.10;;;;;;7714239;22;82734;-68
2022/11/28 11:39:20;;;;;;;14.57;10.18;;;23.30;37.20;;;;;;7713342;22;80620;-65
2022/11/28 11:42:21;;;;;;;15.63;10.35;;;23.20;36.80;;;;;;7708104;22;84054;-68
2022/11/28 11:45:21;;;;;;;16.25;9.15;;;23.30;36.70;;;;;;7708484;22;84039;-67
2022/11/28 11:48:22;;;;;;;15.63;10.25;;;23.30;36.60;;;;;;7715377;22;83711;-70
2022/11/28 11:51:23;;;;;;;17.17;9.23;;;23.50;36.40;;;;;;7709782;22;83143;-72
2022/11/28 11:54:23;;;;;;;13.80;9.23;;;23.40;36.50;;;;;;7715138;22;82873;-72
2022/11/28 11:57:24;;;;;;;15.07;9.13;;;23.30;36.50;;;;;;7718063;22;81349;-73
2022/11/28 12:00:24;;;;;;;14.88;8.65;;;23.30;37.20;;;;;;7712955;22;80564;-69
2022/11/28 12:03:25;;;;;;;11.80;7.30;;;23.30;37.40;;;;;;7717334;22;81078;-74
2022/11/28 12:06:26;;;;;;;9.23;6.93;;;23.30;37.70;;;;;;7719207;22;80939;-72
2022/11/28 12:09:26;;;;;;;9.75;7.40;;;23.20;38.20;;;;;;7685399;22;80537;-73
2022/11/28 12:12:28;;;;;;;11.98;7.53;;;23.20;38.30;;;;;;7715865;22;81541;-73
2022/11/28 12:15:28;;;;;;;11.52;7.43;;;23.20;38.00;;;;;;7715766;22;81886;-71
2022/11/28 12:18:29;;;;;;;9.70;7.18;;;23.20;38.30;;;;;;7719023;22;80287;-71
2022/11/28 12:21:29;;;;;;;11.98;7.50;;;23.40;38.10;;;;;;7715939;22;81027;-70
2022/11/28 12:24:29;;;;;;;12.90;7.07;;;23.70;38.30;;;;;;7716671;22;80504;-62
2022/11/28 12:27:30;;;;;;;10.75;7.07;;;23.90;38.30;;;;;;7716183;22;80515;-64
2022/11/28 12:30:32;;;;;;;13.45;7.32;;;24.10;38.00;;;;;;7719217;22;80743;-64
2022/11/28 12:33:32;;;;;;;8.90;6.60;;;24.30;38.20;;;;;;7690305;22;81490;-62
2022/11/28 12:36:33;;;;;;;8.88;6.28;;;24.50;39.00;;;;;;7703471;22;81646;-63
2022/11/28 12:39:34;;;;;;;9.38;6.20;;;24.60;38.40;;;;;;7713866;22;81884;-65
2022/11/28 12:42:34;;;;;;;10.27;6.22;;;24.80;38.30;;;;;;7714176;22;80559;-71
2022/11/28 12:45:35;;;;;;;10.60;6.88;;;24.90;38.50;;;;;;7690009;22;81819;-70
2022/11/28 12:48:35;;;;;;;12.77;6.70;;;25.00;38.30;;;;;;7715996;22;80388;-68
2022/11/28 12:51:36;;;;;;;8.70;6.07;;;25.10;38.30;;;;;;7716113;22;80674;-68
2022/11/28 12:54:36;;;;;;;10.80;6.35;;;25.20;38.50;;;;;;7713055;22;81712;-69
2022/11/28 12:57:37;;;;;;;8.55;6.38;;;25.20;38.40;;;;;;7719786;22;81360;-69
2022/11/28 13:00:37;;;;;;;8.07;6.00;;;25.20;38.30;;;;;;7690520;22;81054;-67
2022/11/28 13:03:39;;;;;;;11.90;6.40;;;25.30;38.40;;;;;;7691099;22;81555;-63
2022/11/28 13:06:40;;;;;;;8.77;5.88;;;25.40;38.70;;;;;;7699124;22;81780;-64
2022/11/28 13:09:40;;;;;;;10.70;5.90;;;25.50;38.40;;;;;;7711211;22;81533;-64
2022/11/28 13:12:41;;;;;;;9.55;6.00;;;25.60;38.40;;;;;;7712596;22;80526;-64
2022/11/28 13:15:41;;;;;;;9.50;6.07;;;25.70;38.40;;;;;;7716185;22;81082;-64
2022/11/28 13:18:42;;;;;;;8.95;5.70;;;25.70;38.20;;;;;;7716682;22;81738;-63
2022/11/28 13:21:42;;;;;;;8.25;5.75;;;25.80;38.20;;;;;;7705188;22;80639;-65
2022/11/28 13:24:43;;;;;;;7.32;5.40;;;25.80;37.90;;;;;;7711616;22;80206;-66
2022/11/28 13:27:43;;;;;;;8.63;5.70;;;25.90;38.00;;;;;;7706870;22;81152;-62
2022/11/28 13:30:45;;;;;;;7.10;5.40;;;25.90;37.90;;;;;;7708975;22;81134;-66
2022/11/28 13:33:46;;;;;;;9.88;5.07;;;26.00;37.90;;;;;;7707636;22;80800;-65
2022/11/28 13:36:46;;;;;;;6.97;5.43;;;26.10;37.80;;;;;;7711254;22;80607;-65
2022/11/28 13:39:47;;;;;;;8.82;5.70;;;26.20;37.60;;;;;;7708186;22;81698;-63
2022/11/28 13:42:47;;;;;;;7.38;5.43;;;26.30;37.50;;;;;;7682689;22;83637;-65
2022/11/28 13:45:48;;;;;;;7.35;5.35;;;26.40;37.10;;;;;;7715244;22;80795;-65
2022/11/28 13:48:50;;;;;;;7.07;5.18;;;26.40;37.00;;;;;;7712447;22;80412;-66
2022/11/28 13:51:50;;;;;;;7.65;5.45;;;26.50;36.70;;;;;;7682371;22;80433;-66
2022/11/28 13:54:51;;;;;;;7.75;5.18;;;26.70;36.30;;;;;;7708205;22;81216;-66
2022/11/28 13:57:51;;;;;;;7.93;5.65;;;26.90;36.10;;;;;;7703205;22;81517;-64
2022/11/28 14:00:52;;;;;;;9.27;5.50;;;27.10;35.90;;;;;;7710455;22;87436;-64
2022/11/28 14:03:52;;;;;;;7.63;5.47;;;27.20;35.80;;;;;;7682798;22;81918;-65
2022/11/28 14:06:57;;;;;;;7.68;5.22;;;27.10;35.50;;;;;;7716080;22;80299;-65
2022/11/28 14:09:58;;;;;;;9.27;5.28;;;26.80;36.40;;;;;;7713427;22;80696;-66
2022/11/28 14:12:58;;;;;;;8.20;5.85;;;26.50;36.00;;;;;;7715207;22;80429;-65
2022/11/28 14:15:59;;;;;;;7.70;5.35;;;26.20;36.20;;;;;;7683861;22;83647;-61
2022/11/28 14:19:00;;;;;;;9.02;5.65;;;25.90;36.60;;;;;;7686047;22;82846;-60
2022/11/28 14:22:01;;;;;;;8.50;4.95;;;25.70;36.90;;;;;;7717145;22;80175;-60
2022/11/28 14:25:01;;;;;;;8.43;5.57;;;25.50;37.30;;;;;;7712939;22;81322;-61
2022/11/28 14:28:02;;;;;;;8.27;4.93;;;25.30;37.50;;;;;;7714588;22;81911;-59
2022/11/28 14:31:03;;;;;;;15.05;6.47;;;25.10;38.30;;;;;;7713691;22;81285;-60
2022/11/28 14:34:03;;;;;;;10.60;5.30;;;25.00;38.80;;;;;;7717484;22;80424;-60
2022/11/28 14:37:04;;;;;;;8.75;5.40;;;24.80;39.30;;;;;;7709485;22;80859;-58
2022/11/28 14:40:04;;;;;;;11.60;6.05;;;24.70;39.50;;;;;;7688996;22;81421;-57
2022/11/28 14:43:05;;;;;;;9.80;5.35;;;24.40;39.90;;;;;;7713651;22;81526;-58
2022/11/28 14:46:07;;;;;;;9.90;5.63;;;24.30;40.20;;;;;;7703544;22;81802;-59
2022/11/28 14:49:08;;;;;;;10.02;5.38;;;24.20;40.40;;;;;;7686090;22;82922;-60
2022/11/28 14:52:08;;;;;;;8.95;5.82;;;24.10;40.40;;;;;;7704524;22;80475;-60
2022/11/28 14:55:09;;;;;;;10.52;4.95;;;24.10;40.40;;;;;;7688476;22;82979;-62
2022/11/28 14:58:10;;;;;;;7.45;5.13;;;24.00;40.20;;;;;;7683491;22;82964;-60
2022/11/28 15:01:11;;;;;;;13.55;5.47;;;24.00;40.10;;;;;;7714394;22;80099;-58
2022/11/28 15:04:11;;;;;;;7.75;6.03;;;23.90;39.90;;;;;;7711835;22;81170;-60
2022/11/28 15:07:12;;;;;;;11.80;5.75;;;23.80;39.90;;;;;;7712488;22;80285;-58
2022/11/28 15:10:12;;;;;;;12.00;5.65;;;23.80;40.00;;;;;;7678806;22;83793;-61
2022/11/28 15:13:13;;;;;;;13.48;7.68;;;23.70;40.30;;;;;;7712807;22;81427;-61
2022/11/28 15:16:13;;;;;;;17.55;6.97;;;23.70;40.80;;;;;;7713696;22;81342;-61
2022/11/28 15:19:14;;;;;;;15.65;7.80;;;23.70;41.20;;;;;;7685846;22;82963;-63